sensor_id;sensor_type;location;lat;lon;timestamp;P1;durP1;ratioP1;P2;durP2;ratioP2
72388;SDS011;60566;48.062;9.930;2023-05-19T00:01:21;6.85;;;3.25;;
72388;SDS011;60566;48.062;9.930;2023-05-19T00:03:52;6.45;;;2.72;;
72388;SDS011;60566;48.062;9.930;2023-05-19T00:06:20;6.07;;;3.13;;
72388;SDS011;60566;48.062;9.930;2023-05-19T00:08:46;6.68;;;3.13;;
72388;SDS011;60566;48.062;9.930;2023-05-19T00:11:12;5.50;;;2.53;;
72388;SDS011;60566;48.062;9.930;2023-05-19T00:13:38;7.25;;;3.45;;
72388;SDS011;60566;48.062;9.930;2023-05-19T00:16:04;7.15;;;2.90;;
72388;SDS011;60566;48.062;9.930;2023-05-19T00:18:30;6.22;;;3.17;;
72388;SDS011;60566;48.062;9.930;2023-05-19T00:20:57;4.90;;;3.03;;
72388;SDS011;60566;48.062;9.930;2023-05-19T00:23:22;7.78;;;2.85;;
72388;SDS011;60566;48.062;9.930;2023-05-19T00:25:47;7.50;;;3.35;;
72388;SDS011;60566;48.062;9.930;2023-05-19T00:28:13;5.57;;;2.83;;
72388;SDS011;60566;48.062;9.930;2023-05-19T00:30:38;7.38;;;2.80;;
72388;SDS011;60566;48.062;9.930;2023-05-19T00:33:03;7.10;;;3.33;;
72388;SDS011;60566;48.062;9.930;2023-05-19T00:35:29;6.03;;;2.72;;
72388;SDS011;60566;48.062;9.930;2023-05-19T00:37:56;5.68;;;3.13;;
72388;SDS011;60566;48.062;9.930;2023-05-19T00:40:21;6.22;;;3.17;;
72388;SDS011;60566;48.062;9.930;2023-05-19T00:42:47;6.63;;;2.90;;
72388;SDS011;60566;48.062;9.930;2023-05-19T00:45:13;7.13;;;2.80;;
72388;SDS011;60566;48.062;9.930;2023-05-19T00:47:38;6.45;;;3.72;;
72388;SDS011;60566;48.062;9.930;2023-05-19T00:50:04;7.00;;;2.88;;
72388;SDS011;60566;48.062;9.930;2023-05-19T00:52:30;5.40;;;2.50;;
72388;SDS011;60566;48.062;9.930;2023-05-19T00:54:56;8.80;;;3.65;;
72388;SDS011;60566;48.062;9.930;2023-05-19T00:57:22;6.05;;;3.15;;
72388;SDS011;60566;48.062;9.930;2023-05-19T00:59:47;5.75;;;3.42;;
72388;SDS011;60566;48.062;9.930;2023-05-19T01:02:13;5.30;;;2.92;;
72388;SDS011;60566;48.062;9.930;2023-05-19T01:04:38;7.15;;;3.20;;
72388;SDS011;60566;48.062;9.930;2023-05-19T01:07:04;7.00;;;3.35;;
72388;SDS011;60566;48.062;9.930;2023-05-19T01:09:29;8.23;;;4.05;;
72388;SDS011;60566;48.062;9.930;2023-05-19T01:11:56;7.80;;;3.28;;
72388;SDS011;60566;48.062;9.930;2023-05-19T01:14:21;9.43;;;4.18;;
72388;SDS011;60566;48.062;9.930;2023-05-19T01:16:49;6.93;;;3.53;;
72388;SDS011;60566;48.062;9.930;2023-05-19T01:19:23;7.50;;;3.65;;
72388;SDS011;60566;48.062;9.930;2023-05-19T01:22:11;8.63;;;3.58;;
72388;SDS011;60566;48.062;9.930;2023-05-19T01:24:56;9.20;;;3.65;;
72388;SDS011;60566;48.062;9.930;2023-05-19T01:30:55;8.98;;;4.00;;
72388;SDS011;60566;48.062;9.930;2023-05-19T01:33:22;9.40;;;3.95;;
72388;SDS011;60566;48.062;9.930;2023-05-19T01:35:48;9.90;;;4.10;;
72388;SDS011;60566;48.062;9.930;2023-05-19T01:38:15;10.18;;;3.97;;
72388;SDS011;60566;48.062;9.930;2023-05-19T01:40:42;11.85;;;5.55;;
72388;SDS011;60566;48.062;9.930;2023-05-19T01:43:09;10.20;;;4.75;;
72388;SDS011;60566;48.062;9.930;2023-05-19T01:45:37;10.10;;;4.60;;
72388;SDS011;60566;48.062;9.930;2023-05-19T01:48:04;10.63;;;5.00;;
72388;SDS011;60566;48.062;9.930;2023-05-19T01:50:30;11.40;;;4.00;;
72388;SDS011;60566;48.062;9.930;2023-05-19T01:52:56;11.55;;;4.53;;
72388;SDS011;60566;48.062;9.930;2023-05-19T01:55:22;13.45;;;4.82;;
72388;SDS011;60566;48.062;9.930;2023-05-19T01:57:50;8.50;;;3.90;;
72388;SDS011;60566;48.062;9.930;2023-05-19T02:00:23;8.60;;;4.28;;
72388;SDS011;60566;48.062;9.930;2023-05-19T02:02:54;8.35;;;4.40;;
72388;SDS011;60566;48.062;9.930;2023-05-19T02:05:25;11.95;;;4.78;;
72388;SDS011;60566;48.062;9.930;2023-05-19T02:07:57;10.30;;;4.97;;
72388;SDS011;60566;48.062;9.930;2023-05-19T02:10:26;10.02;;;4.20;;
72388;SDS011;60566;48.062;9.930;2023-05-19T02:12:52;10.57;;;4.68;;
72388;SDS011;60566;48.062;9.930;2023-05-19T02:15:19;9.68;;;4.47;;
72388;SDS011;60566;48.062;9.930;2023-05-19T02:17:46;10.80;;;5.18;;
72388;SDS011;60566;48.062;9.930;2023-05-19T02:20:12;9.27;;;4.95;;
72388;SDS011;60566;48.062;9.930;2023-05-19T02:22:39;10.18;;;4.80;;
72388;SDS011;60566;48.062;9.930;2023-05-19T02:25:05;12.27;;;5.00;;
72388;SDS011;60566;48.062;9.930;2023-05-19T02:27:31;9.93;;;4.75;;
72388;SDS011;60566;48.062;9.930;2023-05-19T02:29:56;13.95;;;5.63;;
72388;SDS011;60566;48.062;9.930;2023-05-19T02:32:22;10.18;;;5.15;;
72388;SDS011;60566;48.062;9.930;2023-05-19T02:34:47;9.40;;;5.05;;
72388;SDS011;60566;48.062;9.930;2023-05-19T02:37:12;14.10;;;4.68;;
72388;SDS011;60566;48.062;9.930;2023-05-19T02:39:39;9.80;;;4.70;;
72388;SDS011;60566;48.062;9.930;2023-05-19T02:42:05;13.27;;;5.13;;
72388;SDS011;60566;48.062;9.930;2023-05-19T02:44:30;9.93;;;5.22;;
72388;SDS011;60566;48.062;9.930;2023-05-19T02:46:55;12.55;;;5.28;;
72388;SDS011;60566;48.062;9.930;2023-05-19T02:49:21;11.57;;;4.95;;
72388;SDS011;60566;48.062;9.930;2023-05-19T02:51:46;11.38;;;4.93;;
72388;SDS011;60566;48.062;9.930;2023-05-19T02:54:12;11.80;;;5.57;;
72388;SDS011;60566;48.062;9.930;2023-05-19T02:56:38;13.60;;;5.30;;
72388;SDS011;60566;48.062;9.930;2023-05-19T02:59:04;10.50;;;4.70;;
72388;SDS011;60566;48.062;9.930;2023-05-19T03:01:29;13.15;;;4.90;;
72388;SDS011;60566;48.062;9.930;2023-05-19T03:03:54;12.13;;;5.32;;
72388;SDS011;60566;48.062;9.930;2023-05-19T03:06:20;10.55;;;5.03;;
72388;SDS011;60566;48.062;9.930;2023-05-19T03:08:45;12.88;;;5.40;;
72388;SDS011;60566;48.062;9.930;2023-05-19T03:11:10;9.60;;;4.88;;
72388;SDS011;60566;48.062;9.930;2023-05-19T03:13:37;13.65;;;5.78;;
72388;SDS011;60566;48.062;9.930;2023-05-19T03:16:03;12.77;;;6.07;;
72388;SDS011;60566;48.062;9.930;2023-05-19T03:18:28;14.50;;;5.97;;
72388;SDS011;60566;48.062;9.930;2023-05-19T03:20:53;12.88;;;5.45;;
72388;SDS011;60566;48.062;9.930;2023-05-19T03:23:19;9.95;;;5.25;;
72388;SDS011;60566;48.062;9.930;2023-05-19T03:25:45;16.73;;;6.38;;
72388;SDS011;60566;48.062;9.930;2023-05-19T03:28:10;11.57;;;5.00;;
72388;SDS011;60566;48.062;9.930;2023-05-19T03:30:37;13.75;;;7.22;;
72388;SDS011;60566;48.062;9.930;2023-05-19T03:33:02;13.35;;;6.72;;
72388;SDS011;60566;48.062;9.930;2023-05-19T03:35:28;11.77;;;5.32;;
72388;SDS011;60566;48.062;9.930;2023-05-19T03:37:53;14.15;;;6.07;;
72388;SDS011;60566;48.062;9.930;2023-05-19T03:40:18;15.13;;;5.45;;
72388;SDS011;60566;48.062;9.930;2023-05-19T03:42:44;14.00;;;5.32;;
72388;SDS011;60566;48.062;9.930;2023-05-19T03:45:09;11.75;;;5.40;;
72388;SDS011;60566;48.062;9.930;2023-05-19T03:47:36;15.10;;;6.25;;
72388;SDS011;60566;48.062;9.930;2023-05-19T03:50:02;10.20;;;5.38;;
72388;SDS011;60566;48.062;9.930;2023-05-19T03:52:28;13.40;;;5.65;;
72388;SDS011;60566;48.062;9.930;2023-05-19T03:54:53;15.65;;;6.10;;
72388;SDS011;60566;48.062;9.930;2023-05-19T03:57:18;13.32;;;5.63;;
72388;SDS011;60566;48.062;9.930;2023-05-19T03:59:44;14.23;;;5.32;;
72388;SDS011;60566;48.062;9.930;2023-05-19T04:02:09;14.57;;;5.38;;
72388;SDS011;60566;48.062;9.930;2023-05-19T04:04:36;14.55;;;6.00;;
72388;SDS011;60566;48.062;9.930;2023-05-19T04:07:02;16.23;;;5.88;;
72388;SDS011;60566;48.062;9.930;2023-05-19T04:09:27;12.07;;;6.38;;
72388;SDS011;60566;48.062;9.930;2023-05-19T04:11:52;11.70;;;5.45;;
72388;SDS011;60566;48.062;9.930;2023-05-19T04:14:18;15.38;;;5.70;;
72388;SDS011;60566;48.062;9.930;2023-05-19T04:16:43;20.98;;;6.53;;
72388;SDS011;60566;48.062;9.930;2023-05-19T04:19:08;14.63;;;5.65;;
72388;SDS011;60566;48.062;9.930;2023-05-19T04:21:35;14.48;;;5.82;;
72388;SDS011;60566;48.062;9.930;2023-05-19T04:24:01;13.50;;;5.25;;
72388;SDS011;60566;48.062;9.930;2023-05-19T04:26:26;16.88;;;5.22;;
72388;SDS011;60566;48.062;9.930;2023-05-19T04:28:51;14.25;;;5.88;;
72388;SDS011;60566;48.062;9.930;2023-05-19T04:31:19;14.82;;;5.75;;
72388;SDS011;60566;48.062;9.930;2023-05-19T04:33:46;14.55;;;5.60;;
72388;SDS011;60566;48.062;9.930;2023-05-19T04:36:11;17.52;;;6.05;;
72388;SDS011;60566;48.062;9.930;2023-05-19T04:38:38;16.80;;;6.97;;
72388;SDS011;60566;48.062;9.930;2023-05-19T04:41:04;14.98;;;5.75;;
72388;SDS011;60566;48.062;9.930;2023-05-19T04:43:35;14.43;;;5.90;;
72388;SDS011;60566;48.062;9.930;2023-05-19T04:46:01;13.70;;;5.95;;
72388;SDS011;60566;48.062;9.930;2023-05-19T04:48:32;18.70;;;6.45;;
72388;SDS011;60566;48.062;9.930;2023-05-19T04:50:57;11.68;;;4.80;;
72388;SDS011;60566;48.062;9.930;2023-05-19T04:53:23;15.65;;;5.63;;
72388;SDS011;60566;48.062;9.930;2023-05-19T04:55:49;13.07;;;5.38;;
72388;SDS011;60566;48.062;9.930;2023-05-19T04:58:15;14.63;;;5.90;;
72388;SDS011;60566;48.062;9.930;2023-05-19T05:00:40;15.15;;;5.80;;
72388;SDS011;60566;48.062;9.930;2023-05-19T05:03:06;11.73;;;6.63;;
72388;SDS011;60566;48.062;9.930;2023-05-19T05:05:31;16.55;;;5.57;;
72388;SDS011;60566;48.062;9.930;2023-05-19T05:07:57;20.02;;;6.47;;
72388;SDS011;60566;48.062;9.930;2023-05-19T05:10:23;12.98;;;5.75;;
72388;SDS011;60566;48.062;9.930;2023-05-19T05:12:50;14.70;;;6.00;;
72388;SDS011;60566;48.062;9.930;2023-05-19T05:15:16;15.60;;;5.97;;
72388;SDS011;60566;48.062;9.930;2023-05-19T05:17:42;16.02;;;5.90;;
72388;SDS011;60566;48.062;9.930;2023-05-19T05:20:09;16.05;;;5.60;;
72388;SDS011;60566;48.062;9.930;2023-05-19T05:22:35;12.55;;;5.38;;
72388;SDS011;60566;48.062;9.930;2023-05-19T05:25:01;21.50;;;6.20;;
72388;SDS011;60566;48.062;9.930;2023-05-19T05:27:27;19.05;;;6.15;;
72388;SDS011;60566;48.062;9.930;2023-05-19T05:29:53;14.05;;;5.47;;
72388;SDS011;60566;48.062;9.930;2023-05-19T05:32:19;11.80;;;5.30;;
72388;SDS011;60566;48.062;9.930;2023-05-19T05:34:45;10.75;;;4.95;;
72388;SDS011;60566;48.062;9.930;2023-05-19T05:37:10;17.38;;;5.68;;
72388;SDS011;60566;48.062;9.930;2023-05-19T05:39:36;18.98;;;5.80;;
72388;SDS011;60566;48.062;9.930;2023-05-19T05:42:01;19.13;;;6.18;;
72388;SDS011;60566;48.062;9.930;2023-05-19T05:44:27;13.15;;;5.78;;
72388;SDS011;60566;48.062;9.930;2023-05-19T05:46:54;13.13;;;5.50;;
72388;SDS011;60566;48.062;9.930;2023-05-19T05:49:20;10.88;;;5.35;;
72388;SDS011;60566;48.062;9.930;2023-05-19T05:51:46;13.73;;;5.47;;
72388;SDS011;60566;48.062;9.930;2023-05-19T05:54:12;13.13;;;5.85;;
72388;SDS011;60566;48.062;9.930;2023-05-19T05:56:37;14.40;;;5.68;;
72388;SDS011;60566;48.062;9.930;2023-05-19T05:59:03;15.77;;;5.35;;
72388;SDS011;60566;48.062;9.930;2023-05-19T06:01:28;15.10;;;6.45;;
72388;SDS011;60566;48.062;9.930;2023-05-19T06:03:55;17.70;;;6.00;;
72388;SDS011;60566;48.062;9.930;2023-05-19T06:06:21;14.68;;;6.15;;
72388;SDS011;60566;48.062;9.930;2023-05-19T06:08:46;11.32;;;5.50;;
72388;SDS011;60566;48.062;9.930;2023-05-19T06:11:12;15.15;;;5.68;;
72388;SDS011;60566;48.062;9.930;2023-05-19T06:13:37;10.95;;;5.10;;
72388;SDS011;60566;48.062;9.930;2023-05-19T06:16:03;11.45;;;5.97;;
72388;SDS011;60566;48.062;9.930;2023-05-19T06:18:29;13.38;;;5.65;;
72388;SDS011;60566;48.062;9.930;2023-05-19T06:20:56;13.45;;;6.78;;
72388;SDS011;60566;48.062;9.930;2023-05-19T06:23:21;15.75;;;5.43;;
72388;SDS011;60566;48.062;9.930;2023-05-19T06:25:47;15.15;;;6.35;;
72388;SDS011;60566;48.062;9.930;2023-05-19T06:28:12;12.85;;;5.65;;
72388;SDS011;60566;48.062;9.930;2023-05-19T06:30:38;15.18;;;5.55;;
72388;SDS011;60566;48.062;9.930;2023-05-19T06:33:03;10.80;;;5.45;;
72388;SDS011;60566;48.062;9.930;2023-05-19T06:35:28;12.02;;;5.93;;
72388;SDS011;60566;48.062;9.930;2023-05-19T06:37:55;13.32;;;5.65;;
72388;SDS011;60566;48.062;9.930;2023-05-19T06:40:20;11.57;;;5.47;;
72388;SDS011;60566;48.062;9.930;2023-05-19T06:42:46;12.88;;;5.45;;
72388;SDS011;60566;48.062;9.930;2023-05-19T06:45:11;12.25;;;5.70;;
72388;SDS011;60566;48.062;9.930;2023-05-19T06:47:37;13.68;;;5.82;;
72388;SDS011;60566;48.062;9.930;2023-05-19T06:50:02;11.88;;;5.47;;
72388;SDS011;60566;48.062;9.930;2023-05-19T06:52:28;15.05;;;5.95;;
72388;SDS011;60566;48.062;9.930;2023-05-19T06:54:54;11.98;;;5.22;;
72388;SDS011;60566;48.062;9.930;2023-05-19T06:57:20;12.82;;;6.03;;
72388;SDS011;60566;48.062;9.930;2023-05-19T06:59:45;12.70;;;5.53;;
72388;SDS011;60566;48.062;9.930;2023-05-19T07:02:11;10.57;;;5.30;;
72388;SDS011;60566;48.062;9.930;2023-05-19T07:04:36;12.55;;;5.65;;
72388;SDS011;60566;48.062;9.930;2023-05-19T07:07:02;12.55;;;5.85;;
72388;SDS011;60566;48.062;9.930;2023-05-19T07:09:27;13.95;;;5.55;;
72388;SDS011;60566;48.062;9.930;2023-05-19T07:11:54;14.15;;;5.80;;
72388;SDS011;60566;48.062;9.930;2023-05-19T07:14:19;8.82;;;5.03;;
72388;SDS011;60566;48.062;9.930;2023-05-19T07:16:45;13.65;;;5.53;;
72388;SDS011;60566;48.062;9.930;2023-05-19T07:19:10;14.73;;;5.30;;
72388;SDS011;60566;48.062;9.930;2023-05-19T07:21:36;11.02;;;6.05;;
72388;SDS011;60566;48.062;9.930;2023-05-19T07:24:01;13.60;;;6.05;;
72388;SDS011;60566;48.062;9.930;2023-05-19T07:26:27;13.40;;;4.97;;
72388;SDS011;60566;48.062;9.930;2023-05-19T07:28:54;10.27;;;4.97;;
72388;SDS011;60566;48.062;9.930;2023-05-19T07:31:19;12.80;;;5.30;;
72388;SDS011;60566;48.062;9.930;2023-05-19T07:33:44;9.15;;;4.85;;
72388;SDS011;60566;48.062;9.930;2023-05-19T07:36:10;12.45;;;5.53;;
72388;SDS011;60566;48.062;9.930;2023-05-19T07:38:35;10.23;;;5.40;;
72388;SDS011;60566;48.062;9.930;2023-05-19T07:41:01;13.32;;;5.07;;
72388;SDS011;60566;48.062;9.930;2023-05-19T07:43:26;9.52;;;5.45;;
72388;SDS011;60566;48.062;9.930;2023-05-19T07:45:53;11.77;;;5.25;;
72388;SDS011;60566;48.062;9.930;2023-05-19T07:48:19;8.82;;;5.47;;
72388;SDS011;60566;48.062;9.930;2023-05-19T07:50:44;10.65;;;4.95;;
72388;SDS011;60566;48.062;9.930;2023-05-19T07:53:10;10.13;;;5.00;;
72388;SDS011;60566;48.062;9.930;2023-05-19T07:55:35;10.75;;;4.95;;
72388;SDS011;60566;48.062;9.930;2023-05-19T07:58:01;10.60;;;4.57;;
72388;SDS011;60566;48.062;9.930;2023-05-19T08:00:26;10.98;;;5.47;;
72388;SDS011;60566;48.062;9.930;2023-05-19T08:02:53;12.70;;;5.22;;
72388;SDS011;60566;48.062;9.930;2023-05-19T08:05:18;12.27;;;4.65;;
72388;SDS011;60566;48.062;9.930;2023-05-19T08:07:44;11.80;;;4.70;;
72388;SDS011;60566;48.062;9.930;2023-05-19T08:10:09;8.50;;;4.72;;
72388;SDS011;60566;48.062;9.930;2023-05-19T08:12:34;8.77;;;5.07;;
72388;SDS011;60566;48.062;9.930;2023-05-19T08:15:02;7.28;;;3.80;;
72388;SDS011;60566;48.062;9.930;2023-05-19T08:17:29;8.07;;;4.20;;
72388;SDS011;60566;48.062;9.930;2023-05-19T08:22:24;12.00;;;4.55;;
72388;SDS011;60566;48.062;9.930;2023-05-19T08:24:49;8.50;;;4.68;;
72388;SDS011;60566;48.062;9.930;2023-05-19T08:27:14;8.32;;;4.63;;
72388;SDS011;60566;48.062;9.930;2023-05-19T08:29:46;10.30;;;4.82;;
72388;SDS011;60566;48.062;9.930;2023-05-19T08:32:16;12.63;;;4.80;;
72388;SDS011;60566;48.062;9.930;2023-05-19T08:34:41;11.70;;;5.00;;
72388;SDS011;60566;48.062;9.930;2023-05-19T08:37:11;9.38;;;5.05;;
72388;SDS011;60566;48.062;9.930;2023-05-19T08:39:39;9.07;;;4.57;;
72388;SDS011;60566;48.062;9.930;2023-05-19T08:42:06;12.00;;;4.97;;
72388;SDS011;60566;48.062;9.930;2023-05-19T08:44:32;10.52;;;4.97;;
72388;SDS011;60566;48.062;9.930;2023-05-19T08:47:09;12.43;;;4.97;;
72388;SDS011;60566;48.062;9.930;2023-05-19T08:49:35;7.88;;;4.20;;
72388;SDS011;60566;48.062;9.930;2023-05-19T08:52:12;11.13;;;4.70;;
72388;SDS011;60566;48.062;9.930;2023-05-19T08:54:43;7.32;;;4.55;;
72388;SDS011;60566;48.062;9.930;2023-05-19T08:57:10;8.32;;;4.47;;
72388;SDS011;60566;48.062;9.930;2023-05-19T08:59:36;7.47;;;4.35;;
72388;SDS011;60566;48.062;9.930;2023-05-19T09:02:02;12.82;;;4.93;;
72388;SDS011;60566;48.062;9.930;2023-05-19T09:04:28;10.63;;;5.00;;
72388;SDS011;60566;48.062;9.930;2023-05-19T09:06:53;9.07;;;4.93;;
72388;SDS011;60566;48.062;9.930;2023-05-19T09:09:20;8.93;;;4.95;;
72388;SDS011;60566;48.062;9.930;2023-05-19T09:11:50;7.43;;;4.45;;
72388;SDS011;60566;48.062;9.930;2023-05-19T09:14:17;9.77;;;4.68;;
72388;SDS011;60566;48.062;9.930;2023-05-19T09:16:43;9.18;;;4.72;;
72388;SDS011;60566;48.062;9.930;2023-05-19T09:19:12;7.78;;;4.45;;
72388;SDS011;60566;48.062;9.930;2023-05-19T09:21:38;8.68;;;4.32;;
72388;SDS011;60566;48.062;9.930;2023-05-19T09:24:03;10.95;;;4.40;;
72388;SDS011;60566;48.062;9.930;2023-05-19T09:26:36;10.57;;;4.63;;
72388;SDS011;60566;48.062;9.930;2023-05-19T09:29:01;6.40;;;4.00;;
72388;SDS011;60566;48.062;9.930;2023-05-19T09:31:37;7.88;;;4.65;;
72388;SDS011;60566;48.062;9.930;2023-05-19T09:34:03;8.20;;;4.25;;
72388;SDS011;60566;48.062;9.930;2023-05-19T09:36:45;9.98;;;4.72;;
72388;SDS011;60566;48.062;9.930;2023-05-19T09:39:45;10.40;;;4.47;;
72388;SDS011;60566;48.062;9.930;2023-05-19T09:48:24;13.57;;;5.03;;
72388;SDS011;60566;48.062;9.930;2023-05-19T09:53:40;8.80;;;4.30;;
72388;SDS011;60566;48.062;9.930;2023-05-19T09:56:06;10.10;;;4.55;;
72388;SDS011;60566;48.062;9.930;2023-05-19T09:58:32;9.18;;;5.60;;
72388;SDS011;60566;48.062;9.930;2023-05-19T10:00:59;8.93;;;5.15;;
72388;SDS011;60566;48.062;9.930;2023-05-19T10:03:25;11.02;;;4.78;;
72388;SDS011;60566;48.062;9.930;2023-05-19T10:05:51;9.13;;;4.53;;
72388;SDS011;60566;48.062;9.930;2023-05-19T10:08:17;8.57;;;4.50;;
72388;SDS011;60566;48.062;9.930;2023-05-19T10:10:46;10.80;;;4.47;;
72388;SDS011;60566;48.062;9.930;2023-05-19T10:13:11;8.30;;;4.18;;
72388;SDS011;60566;48.062;9.930;2023-05-19T10:15:37;13.00;;;4.88;;
72388;SDS011;60566;48.062;9.930;2023-05-19T10:18:06;9.43;;;4.80;;
72388;SDS011;60566;48.062;9.930;2023-05-19T10:20:35;10.57;;;4.90;;
72388;SDS011;60566;48.062;9.930;2023-05-19T10:23:01;8.20;;;4.35;;
72388;SDS011;60566;48.062;9.930;2023-05-19T10:25:27;9.23;;;4.63;;
72388;SDS011;60566;48.062;9.930;2023-05-19T10:27:54;9.23;;;4.63;;
72388;SDS011;60566;48.062;9.930;2023-05-19T10:30:24;12.05;;;5.30;;
72388;SDS011;60566;48.062;9.930;2023-05-19T10:32:51;11.05;;;5.75;;
72388;SDS011;60566;48.062;9.930;2023-05-19T10:38:10;11.32;;;5.93;;
72388;SDS011;60566;48.062;9.930;2023-05-19T10:40:40;16.67;;;5.40;;
72388;SDS011;60566;48.062;9.930;2023-05-19T10:43:14;14.20;;;6.03;;
72388;SDS011;60566;48.062;9.930;2023-05-19T10:45:46;9.45;;;6.13;;
72388;SDS011;60566;48.062;9.930;2023-05-19T10:48:12;12.43;;;5.75;;
72388;SDS011;60566;48.062;9.930;2023-05-19T10:50:39;10.75;;;5.45;;
72388;SDS011;60566;48.062;9.930;2023-05-19T10:53:12;13.35;;;6.43;;
72388;SDS011;60566;48.062;9.930;2023-05-19T10:55:45;9.60;;;5.50;;
72388;SDS011;60566;48.062;9.930;2023-05-19T10:58:11;12.95;;;6.32;;
72388;SDS011;60566;48.062;9.930;2023-05-19T11:00:36;10.20;;;5.53;;
72388;SDS011;60566;48.062;9.930;2023-05-19T11:03:12;9.70;;;5.28;;
72388;SDS011;60566;48.062;9.930;2023-05-19T11:05:40;12.70;;;5.10;;
72388;SDS011;60566;48.062;9.930;2023-05-19T11:08:06;11.48;;;5.70;;
72388;SDS011;60566;48.062;9.930;2023-05-19T11:10:31;15.57;;;6.03;;
72388;SDS011;60566;48.062;9.930;2023-05-19T11:12:56;15.30;;;5.85;;
72388;SDS011;60566;48.062;9.930;2023-05-19T11:15:22;13.05;;;6.22;;
72388;SDS011;60566;48.062;9.930;2023-05-19T11:17:49;13.18;;;6.35;;
72388;SDS011;60566;48.062;9.930;2023-05-19T11:20:19;12.25;;;5.30;;
72388;SDS011;60566;48.062;9.930;2023-05-19T11:23:02;13.07;;;6.25;;
72388;SDS011;60566;48.062;9.930;2023-05-19T11:25:42;14.25;;;6.38;;
72388;SDS011;60566;48.062;9.930;2023-05-19T11:28:09;11.52;;;6.07;;
72388;SDS011;60566;48.062;9.930;2023-05-19T11:30:34;10.63;;;6.43;;
72388;SDS011;60566;48.062;9.930;2023-05-19T11:33:00;13.23;;;6.38;;
72388;SDS011;60566;48.062;9.930;2023-05-19T11:35:31;11.27;;;7.22;;
72388;SDS011;60566;48.062;9.930;2023-05-19T11:38:08;14.63;;;6.95;;
72388;SDS011;60566;48.062;9.930;2023-05-19T11:40:40;14.13;;;6.80;;
72388;SDS011;60566;48.062;9.930;2023-05-19T11:43:13;13.45;;;6.85;;
72388;SDS011;60566;48.062;9.930;2023-05-19T11:45:42;13.40;;;7.15;;
72388;SDS011;60566;48.062;9.930;2023-05-19T11:48:09;15.52;;;6.55;;
72388;SDS011;60566;48.062;9.930;2023-05-19T11:50:35;12.27;;;7.32;;
72388;SDS011;60566;48.062;9.930;2023-05-19T11:53:00;12.40;;;7.35;;
72388;SDS011;60566;48.062;9.930;2023-05-19T11:55:27;11.05;;;7.03;;
72388;SDS011;60566;48.062;9.930;2023-05-19T11:57:56;11.25;;;7.03;;
72388;SDS011;60566;48.062;9.930;2023-05-19T12:00:22;12.90;;;7.38;;
72388;SDS011;60566;48.062;9.930;2023-05-19T12:02:49;10.73;;;6.78;;
72388;SDS011;60566;48.062;9.930;2023-05-19T12:05:18;11.60;;;6.88;;
72388;SDS011;60566;48.062;9.930;2023-05-19T12:07:45;14.27;;;7.90;;
72388;SDS011;60566;48.062;9.930;2023-05-19T12:10:11;14.15;;;7.78;;
72388;SDS011;60566;48.062;9.930;2023-05-19T12:12:41;10.18;;;6.40;;
72388;SDS011;60566;48.062;9.930;2023-05-19T12:15:07;16.67;;;6.45;;
72388;SDS011;60566;48.062;9.930;2023-05-19T12:17:44;11.73;;;6.47;;
72388;SDS011;60566;48.062;9.930;2023-05-19T12:20:14;10.93;;;6.95;;
72388;SDS011;60566;48.062;9.930;2023-05-19T12:22:39;13.57;;;6.72;;
72388;SDS011;60566;48.062;9.930;2023-05-19T12:25:13;12.88;;;6.78;;
72388;SDS011;60566;48.062;9.930;2023-05-19T12:27:41;15.40;;;7.05;;
72388;SDS011;60566;48.062;9.930;2023-05-19T12:30:15;12.85;;;7.13;;
72388;SDS011;60566;48.062;9.930;2023-05-19T12:32:40;12.15;;;6.45;;
72388;SDS011;60566;48.062;9.930;2023-05-19T12:35:07;14.02;;;6.78;;
72388;SDS011;60566;48.062;9.930;2023-05-19T12:37:33;12.77;;;6.80;;
72388;SDS011;60566;48.062;9.930;2023-05-19T12:40:05;11.60;;;6.72;;
72388;SDS011;60566;48.062;9.930;2023-05-19T12:42:31;12.35;;;6.60;;
72388;SDS011;60566;48.062;9.930;2023-05-19T12:44:59;11.27;;;6.00;;
72388;SDS011;60566;48.062;9.930;2023-05-19T12:49:54;16.75;;;7.57;;
72388;SDS011;60566;48.062;9.930;2023-05-19T12:52:19;13.40;;;6.43;;
72388;SDS011;60566;48.062;9.930;2023-05-19T12:54:45;10.98;;;6.05;;
72388;SDS011;60566;48.062;9.930;2023-05-19T12:57:10;10.43;;;5.97;;
72388;SDS011;60566;48.062;9.930;2023-05-19T12:59:35;13.93;;;6.45;;
72388;SDS011;60566;48.062;9.930;2023-05-19T13:02:11;11.00;;;6.38;;
72388;SDS011;60566;48.062;9.930;2023-05-19T13:04:36;12.68;;;6.78;;
72388;SDS011;60566;48.062;9.930;2023-05-19T13:07:02;13.63;;;6.65;;
72388;SDS011;60566;48.062;9.930;2023-05-19T13:09:28;12.48;;;6.00;;
72388;SDS011;60566;48.062;9.930;2023-05-19T13:11:53;14.20;;;6.53;;
72388;SDS011;60566;48.062;9.930;2023-05-19T13:14:21;10.10;;;6.03;;
72388;SDS011;60566;48.062;9.930;2023-05-19T13:16:48;12.93;;;6.75;;
72388;SDS011;60566;48.062;9.930;2023-05-19T13:19:16;12.98;;;6.53;;
72388;SDS011;60566;48.062;9.930;2023-05-19T13:21:43;10.35;;;5.95;;
72388;SDS011;60566;48.062;9.930;2023-05-19T13:24:09;11.27;;;6.03;;
72388;SDS011;60566;48.062;9.930;2023-05-19T13:26:34;12.07;;;5.97;;
72388;SDS011;60566;48.062;9.930;2023-05-19T13:29:29;12.57;;;6.28;;
72388;SDS011;60566;48.062;9.930;2023-05-19T13:34:35;8.60;;;5.25;;
72388;SDS011;60566;48.062;9.930;2023-05-19T13:37:03;12.13;;;5.93;;
72388;SDS011;60566;48.062;9.930;2023-05-19T13:39:42;11.13;;;5.88;;
72388;SDS011;60566;48.062;9.930;2023-05-19T13:42:08;10.10;;;5.65;;
72388;SDS011;60566;48.062;9.930;2023-05-19T13:44:36;17.98;;;6.72;;
72388;SDS011;60566;48.062;9.930;2023-05-19T13:47:09;12.60;;;6.70;;
72388;SDS011;60566;48.062;9.930;2023-05-19T13:49:39;13.25;;;6.55;;
72388;SDS011;60566;48.062;9.930;2023-05-19T13:52:05;11.55;;;6.13;;
72388;SDS011;60566;48.062;9.930;2023-05-19T13:54:34;11.73;;;7.15;;
72388;SDS011;60566;48.062;9.930;2023-05-19T13:57:10;14.75;;;6.70;;
72388;SDS011;60566;48.062;9.930;2023-05-19T13:59:40;10.90;;;6.32;;
72388;SDS011;60566;48.062;9.930;2023-05-19T14:02:10;11.23;;;6.45;;
72388;SDS011;60566;48.062;9.930;2023-05-19T14:04:39;12.23;;;6.50;;
72388;SDS011;60566;48.062;9.930;2023-05-19T14:07:31;11.60;;;6.68;;
72388;SDS011;60566;48.062;9.930;2023-05-19T14:10:00;13.20;;;6.53;;
72388;SDS011;60566;48.062;9.930;2023-05-19T14:12:42;11.80;;;6.75;;
72388;SDS011;60566;48.062;9.930;2023-05-19T14:15:07;14.68;;;6.97;;
72388;SDS011;60566;48.062;9.930;2023-05-19T14:17:34;13.25;;;5.90;;
72388;SDS011;60566;48.062;9.930;2023-05-19T14:20:03;12.65;;;6.95;;
72388;SDS011;60566;48.062;9.930;2023-05-19T14:22:33;18.67;;;7.32;;
72388;SDS011;60566;48.062;9.930;2023-05-19T14:25:01;10.85;;;6.88;;
72388;SDS011;60566;48.062;9.930;2023-05-19T14:27:28;10.55;;;6.32;;
72388;SDS011;60566;48.062;9.930;2023-05-19T14:29:59;12.90;;;6.70;;
72388;SDS011;60566;48.062;9.930;2023-05-19T14:32:26;12.68;;;6.38;;
72388;SDS011;60566;48.062;9.930;2023-05-19T14:34:56;11.52;;;6.50;;
72388;SDS011;60566;48.062;9.930;2023-05-19T14:37:23;13.88;;;6.32;;
72388;SDS011;60566;48.062;9.930;2023-05-19T14:39:51;13.18;;;6.95;;
72388;SDS011;60566;48.062;9.930;2023-05-19T14:42:18;14.35;;;7.03;;
72388;SDS011;60566;48.062;9.930;2023-05-19T14:44:49;15.05;;;6.95;;
72388;SDS011;60566;48.062;9.930;2023-05-19T14:47:15;12.90;;;6.60;;
72388;SDS011;60566;48.062;9.930;2023-05-19T14:49:43;12.65;;;7.00;;
72388;SDS011;60566;48.062;9.930;2023-05-19T14:52:26;11.57;;;6.82;;
72388;SDS011;60566;48.062;9.930;2023-05-19T14:58:16;12.98;;;7.00;;
72388;SDS011;60566;48.062;9.930;2023-05-19T15:04:11;16.10;;;6.55;;
72388;SDS011;60566;48.062;9.930;2023-05-19T15:06:43;13.75;;;6.82;;
72388;SDS011;60566;48.062;9.930;2023-05-19T15:09:29;14.02;;;7.00;;